createdAt,value
2022-10-01T00:01:24.479Z,81.9
2022-10-01T00:13:24.379Z,82.5
2022-10-01T00:25:24.387Z,82.8
2022-10-01T00:37:24.468Z,83.3
2022-10-01T00:49:24.380Z,84.1
2022-10-01T01:01:24.435Z,83.9
2022-10-01T01:13:24.378Z,83.7
2022-10-01T01:25:24.388Z,84.0
2022-10-01T01:37:24.441Z,82.9
2022-10-01T01:49:24.381Z,83.1
2022-10-01T02:01:24.418Z,88.2
2022-10-01T02:13:24.386Z,91.0
2022-10-01T02:25:24.488Z,96.3
2022-10-01T02:37:24.495Z,97.7
2022-10-01T02:49:28.563Z,97.6
2022-10-01T03:01:24.426Z,97.6
2022-10-01T03:13:24.385Z,97.6
2022-10-01T03:25:24.383Z,97.6
2022-10-01T03:37:24.443Z,97.6
2022-10-01T03:49:24.382Z,97.6
2022-10-01T04:01:24.488Z,97.6
2022-10-01T04:13:24.457Z,97.5
2022-10-01T04:25:24.500Z,97.6
2022-10-01T04:37:24.380Z,97.6
2022-10-01T04:49:25.960Z,97.6
2022-10-01T05:01:24.732Z,97.6
2022-10-01T05:13:24.386Z,97.6
2022-10-01T05:25:24.395Z,97.6
2022-10-01T05:37:24.537Z,97.6
2022-10-01T05:49:24.513Z,97.6
2022-10-01T06:01:24.439Z,97.6
2022-10-01T06:13:24.608Z,97.6
2022-10-01T06:25:24.501Z,97.6
2022-10-01T06:37:24.666Z,97.7
2022-10-01T06:49:24.673Z,97.7
2022-10-01T07:01:24.648Z,97.7
2022-10-01T07:13:24.517Z,97.7
2022-10-01T07:25:24.652Z,97.7
2022-10-01T07:37:24.424Z,97.7
2022-10-01T07:49:24.680Z,97.7
2022-10-01T08:01:24.748Z,97.7
2022-10-01T08:13:24.515Z,97.8
2022-10-01T08:25:24.474Z,97.8
2022-10-01T08:37:24.461Z,97.8
2022-10-01T08:49:24.388Z,97.8
2022-10-01T09:01:24.598Z,97.8
2022-10-01T09:13:24.383Z,97.8
2022-10-01T09:25:24.388Z,97.8
2022-10-01T09:37:24.495Z,97.9
2022-10-01T09:49:24.387Z,97.9
2022-10-01T10:01:24.507Z,97.9
2022-10-01T10:13:24.461Z,97.9
2022-10-01T10:25:24.501Z,98.0
2022-10-01T10:37:24.417Z,98.0
2022-10-01T10:49:24.483Z,98.1
2022-10-01T11:01:24.556Z,98.3
2022-10-01T11:13:24.497Z,98.2
2022-10-01T11:25:24.384Z,98.3
2022-10-01T11:37:24.456Z,97.8
2022-10-01T11:49:24.496Z,98.1
2022-10-01T12:01:24.506Z,98.3
2022-10-01T12:13:24.386Z,98.4
2022-10-01T12:25:24.455Z,98.4
2022-10-01T12:37:24.388Z,94.5
2022-10-01T12:49:24.501Z,91.2
2022-10-01T13:01:24.516Z,82.6
2022-10-01T13:13:24.474Z,83.9
2022-10-01T13:25:24.509Z,80.9
2022-10-01T13:37:24.409Z,75.5
2022-10-01T13:49:24.470Z,71.4
2022-10-01T14:01:24.682Z,64.2
2022-10-01T14:13:24.507Z,70.5
2022-10-01T14:25:24.395Z,74.8
2022-10-01T14:37:24.452Z,75.1
2022-10-01T14:49:24.470Z,77.0
2022-10-01T15:01:24.507Z,71.0
2022-10-01T15:13:24.388Z,71.3
2022-10-01T15:25:24.389Z,69.3
2022-10-01T15:37:24.496Z,69.8
2022-10-01T15:49:24.469Z,70.3
2022-10-01T16:01:24.517Z,70.5
2022-10-01T16:13:24.387Z,72.8
2022-10-01T16:25:24.465Z,74.5
2022-10-01T16:37:24.654Z,76.6
2022-10-01T16:49:24.494Z,78.4
2022-10-01T17:01:24.486Z,87.2
2022-10-01T17:13:24.502Z,90.6
2022-10-01T17:25:24.499Z,92.6
2022-10-01T17:37:24.388Z,93.1
2022-10-01T17:49:24.386Z,88.0
2022-10-01T18:01:24.423Z,84.0
2022-10-01T18:13:24.402Z,89.5
2022-10-01T18:25:24.447Z,91.4
2022-10-01T18:37:24.611Z,93.4
2022-10-01T18:49:24.494Z,98.2
2022-10-01T19:01:24.579Z,98.1
2022-10-01T19:13:24.506Z,98.1
2022-10-01T19:25:24.499Z,98.1
2022-10-01T19:37:24.386Z,98.1
2022-10-01T19:49:24.477Z,98.1
2022-10-01T20:01:24.518Z,98.1
2022-10-01T20:13:24.403Z,98.0
2022-10-01T20:25:24.461Z,98.0
2022-10-01T20:37:24.488Z,98.0
2022-10-01T20:49:24.386Z,97.8
2022-10-01T21:01:24.561Z,98.0
2022-10-01T21:13:24.473Z,98.0
2022-10-01T21:25:24.421Z,98.0
2022-10-01T21:37:24.384Z,98.0
2022-10-01T21:49:24.475Z,98.0
2022-10-01T22:01:24.513Z,98.0
2022-10-01T22:13:24.403Z,98.0
2022-10-01T22:25:24.456Z,98.0
2022-10-01T22:37:24.379Z,98.0
2022-10-01T22:49:24.385Z,98.0
2022-10-01T23:01:24.418Z,97.9
2022-10-01T23:13:24.501Z,97.9
2022-10-01T23:25:24.386Z,97.9
2022-10-01T23:37:24.382Z,97.9
2022-10-01T23:49:24.385Z,97.9
